Time;durP1;ratioP1;P1;durP2;ratioP2;P2;SDS_P1;SDS_P2;PMS_P1;PMS_P2;Temp;Humidity;BMP_temperature;BMP_pressure;BME280_temperature;BME280_humidity;BME280_pressure;Samples;Min_cycle;Max_cycle;Signal;HPM_P1;HPM_P2
2022/12/02 00:02:28;;;;;;;;;;;;;;;8.71;59.22;102551.03;4959583;28;124992;-66
2022/12/02 00:05:05;;;;;;;;;;;;;;;8.71;59.28;102550.19;4937077;28;124142;-65
2022/12/02 00:07:32;;;;;;;;;;;;;;;8.67;59.19;102549.31;4957856;28;119883;-66
2022/12/02 00:09:59;;;;;;;;;;;;;;;8.66;59.07;102542.28;4945221;28;119050;-66
2022/12/02 00:12:27;;;;;;;;;;;;;;;8.65;59.39;102543.19;4942038;28;124577;-66
2022/12/02 00:14:59;;;;;;;;;;;;;;;8.64;59.40;102537.91;4959313;28;124772;-65
2022/12/02 00:17:26;;;;;;;;;;;;;;;8.61;59.30;102533.53;4956913;28;120368;-66
2022/12/02 00:19:53;;;;;;;;;;;;;;;8.60;59.16;102526.50;4937225;28;119047;-66
2022/12/02 00:22:20;;;;;;;;;;;;;;;8.58;59.05;102525.63;4956035;28;123354;-65
2022/12/02 00:24:47;;;;;;;;;;;;;;;8.55;59.00;102523.91;4958225;28;124106;-65
2022/12/02 00:27:15;;;;;;;;;;;;;;;8.53;58.83;102524.81;4957208;28;120605;-65
2022/12/02 00:29:42;;;;;;;;;;;;;;;8.52;59.17;102523.06;4934197;28;120276;-66
2022/12/02 00:32:09;;;;;;;;;;;;;;;8.50;59.17;102530.13;4959000;28;124100;-66
2022/12/02 00:34:36;;;;;;;;;;;;;;;8.49;59.25;102523.09;4957944;28;124190;-66
2022/12/02 00:37:03;;;;;;;;;;;;;;;8.47;59.16;102519.59;4960029;28;119889;-66
2022/12/02 00:39:30;;;;;;;;;;;;;;;8.46;59.18;102523.13;4964305;28;119010;-66
2022/12/02 00:41:58;;;;;;;;;;;;;;;8.46;59.17;102528.41;4960003;28;123976;-65
2022/12/02 00:47:24;;;;;;;;;;;;;;;8.39;58.96;102517.84;4925399;28;120352;-65
2022/12/02 00:49:51;;;;;;;;;;;;;;;8.37;58.75;102519.63;4947974;28;118639;-66
2022/12/02 00:52:18;;;;;;;;;;;;;;;8.31;58.91;102522.34;4944357;28;123527;-66
2022/12/02 00:54:46;;;;;;;;;;;;;;;8.27;58.73;102523.25;4950685;28;97378;-65
2022/12/02 00:57:13;;;;;;;;;;;;;;;8.21;58.90;102528.56;4964153;28;119646;-65
2022/12/02 00:59:40;;;;;;;;;;;;;;;8.18;58.64;102523.31;4946752;28;119364;-65
2022/12/02 01:02:07;;;;;;;;;;;;;;;8.17;58.97;102518.91;4964716;28;124115;-65
2022/12/02 01:04:34;;;;;;;;;;;;;;;8.14;58.43;102532.16;4965033;28;124160;-66
2022/12/02 01:07:01;;;;;;;;;;;;;;;8.10;58.33;102526.03;4947711;28;118059;-66
2022/12/02 01:09:28;;;;;;;;;;;;;;;8.05;58.34;102517.25;4950515;28;116370;-66
2022/12/02 01:11:54;;;;;;;;;;;;;;;8.03;58.40;102523.44;4935891;28;124538;-65
2022/12/02 01:14:21;;;;;;;;;;;;;;;7.97;58.25;102509.41;4959573;28;123150;-66
2022/12/02 01:16:48;;;;;;;;;;;;;;;7.94;58.40;102509.41;4959348;28;120616;-65
2022/12/02 01:19:15;;;;;;;;;;;;;;;7.92;58.55;102505.91;4974346;28;120153;-66
2022/12/02 01:21:42;;;;;;;;;;;;;;;7.89;58.44;102503.31;4955750;28;124352;-66
2022/12/02 01:24:09;;;;;;;;;;;;;;;7.88;58.58;102503.31;4965198;28;124051;-66
2022/12/02 01:26:36;;;;;;;;;;;;;;;7.86;58.44;102503.34;4942038;28;120014;-66
2022/12/02 01:29:06;;;;;;;;;;;;;;;7.85;58.40;102509.47;4969459;28;118892;-66
2022/12/02 01:31:33;;;;;;;;;;;;;;;7.84;58.58;102513.03;4952125;28;124324;-65
2022/12/02 01:34:00;;;;;;;;;;;;;;;7.82;58.56;102503.34;4952167;28;124740;-66
2022/12/02 01:36:27;;;;;;;;;;;;;;;7.82;58.48;102509.53;4958976;28;118662;-66
2022/12/02 01:38:54;;;;;;;;;;;;;;;7.82;58.95;102506.88;4965186;28;118464;-66
2022/12/02 01:41:21;;;;;;;;;;;;;;;7.81;58.68;102513.03;4961122;28;124746;-66
2022/12/02 01:43:48;;;;;;;;;;;;;;;7.79;58.33;102514.81;4969870;28;124360;-65
2022/12/02 01:46:16;;;;;;;;;;;;;;;7.78;58.29;102513.06;4952101;28;118557;-66
2022/12/02 01:48:43;;;;;;;;;;;;;;;7.76;58.21;102504.25;4982054;28;118881;-66
2022/12/02 01:51:10;;;;;;;;;;;;;;;7.74;58.59;102506.03;4953773;28;125035;-66
2022/12/02 01:53:38;;;;;;;;;;;;;;;7.72;58.76;102513.09;4969804;28;123932;-66
2022/12/02 01:56:05;;;;;;;;;;;;;;;7.72;58.50;102507.81;4937947;28;118973;-66
2022/12/02 01:58:32;;;;;;;;;;;;;;;7.71;58.84;102500.81;4944559;28;117733;-66
2022/12/02 02:00:59;;;;;;;;;;;;;;;7.71;58.45;102517.50;4931982;28;123372;-66
2022/12/02 02:03:26;;;;;;;;;;;;;;;7.71;58.50;102506.06;4980369;28;125004;-66
2022/12/02 02:05:53;;;;;;;;;;;;;;;7.72;58.56;102507.81;4930633;28;119544;-66
2022/12/02 02:08:20;;;;;;;;;;;;;;;7.74;58.78;102511.31;4971932;28;119518;-65
2022/12/02 02:10:48;;;;;;;;;;;;;;;7.75;58.56;102502.53;4957533;28;122579;-66
2022/12/02 02:13:16;;;;;;;;;;;;;;;7.76;58.72;102504.25;4935041;28;123290;-66
2022/12/02 02:15:44;;;;;;;;;;;;;;;7.76;58.90;102509.53;4964795;28;120544;-66
2022/12/02 02:18:11;;;;;;;;;;;;;;;7.77;58.64;102506.03;4957902;28;118106;-66
2022/12/02 02:20:39;;;;;;;;;;;;;;;7.78;58.69;102502.50;4962882;28;122439;-66
2022/12/02 02:23:07;;;;;;;;;;;;;;;7.75;58.42;102498.13;4940076;28;123515;-66
2022/12/02 02:25:38;;;;;;;;;;;;;;;7.73;58.48;102493.75;4942994;28;118671;-66
2022/12/02 02:28:07;;;;;;;;;;;;;;;7.70;58.50;102499.03;4951714;28;119671;-66
2022/12/02 02:30:35;;;;;;;;;;;;;;;7.68;58.49;102501.69;4950968;28;123326;-66
2022/12/02 02:33:08;;;;;;;;;;;;;;;7.68;58.83;102495.53;4969039;28;124630;-66
2022/12/02 02:35:36;;;;;;;;;;;;;;;7.68;58.58;102490.25;4950386;28;118673;-65
2022/12/02 02:38:04;;;;;;;;;;;;;;;7.68;58.86;102492.91;4950744;28;119218;-68
2022/12/02 02:40:32;;;;;;;;;;;;;;;7.67;58.70;102485.88;4940954;28;123786;-68
2022/12/02 02:43:00;;;;;;;;;;;;;;;7.68;58.63;102484.97;4965128;28;124168;-67
2022/12/02 02:45:29;;;;;;;;;;;;;;;7.69;58.84;102481.47;4967919;28;119927;-67
2022/12/02 02:47:59;;;;;;;;;;;;;;;7.70;58.66;102484.06;4952730;28;118106;-68
2022/12/02 02:50:27;;;;;;;;;;;;;;;7.71;58.83;102477.94;4937059;28;123823;-68
2022/12/02 02:52:55;;;;;;;;;;;;;;;7.73;59.09;102477.94;4939651;28;124818;-67
2022/12/02 02:55:23;;;;;;;;;;;;;;;7.73;58.99;102483.19;4948011;28;120670;-67
2022/12/02 02:57:50;;;;;;;;;;;;;;;7.73;58.64;102477.94;4956714;28;118153;-67
2022/12/02 03:00:18;;;;;;;;;;;;;;;7.73;58.79;102477.94;4944056;28;123378;-68
2022/12/02 03:02:48;;;;;;;;;;;;;;;7.71;58.63;102471.78;4957386;28;124501;-67
2022/12/02 03:05:16;;;;;;;;;;;;;;;7.69;58.54;102486.75;4964512;28;119511;-67
2022/12/02 03:07:43;;;;;;;;;;;;;;;7.66;58.47;102481.47;4968301;28;119739;-68
2022/12/02 03:10:11;;;;;;;;;;;;;;;7.64;58.75;102472.72;4950851;28;124699;-68
2022/12/02 03:12:38;;;;;;;;;;;;;;;7.60;58.63;102472.72;4947180;28;124299;-67
2022/12/02 03:15:07;;;;;;;;;;;;;;;7.58;58.78;102474.50;4958146;28;120227;-68
2022/12/02 03:17:34;;;;;;;;;;;;;;;7.55;58.85;102464.00;4936692;28;117722;-68
2022/12/02 03:20:01;;;;;;;;;;;;;;;7.53;58.74;102457.81;4959885;28;124595;-67
2022/12/02 03:22:28;;;;;;;;;;;;;;;7.53;58.60;102460.44;4962217;28;124173;-68
2022/12/02 03:24:55;;;;;;;;;;;;;;;7.53;58.95;102465.72;4947568;28;119726;-66
2022/12/02 03:27:21;;;;;;;;;;;;;;;7.51;58.64;102456.94;4954676;28;118747;-66
2022/12/02 03:29:49;;;;;;;;;;;;;;;7.51;58.84;102456.94;4955300;28;124655;-66
2022/12/02 03:32:16;;;;;;;;;;;;;;;7.51;58.89;102459.59;4962404;28;124972;-66
2022/12/02 03:34:43;;;;;;;;;;;;;;;7.51;58.62;102456.94;4963076;28;120199;-66
2022/12/02 03:37:10;;;;;;;;;;;;;;;7.52;58.80;102461.34;4961523;28;118225;-66
2022/12/02 03:39:37;;;;;;;;;;;;;;;7.51;58.86;102449.03;4959597;28;123704;-66
2022/12/02 03:42:04;;;;;;;;;;;;;;;7.51;58.61;102451.69;4961698;28;123958;-65
2022/12/02 03:44:31;;;;;;;;;;;;;;;7.50;58.64;102443.81;4946353;28;120578;-66
2022/12/02 03:46:59;;;;;;;;;;;;;;;7.50;58.89;102449.94;4946804;28;119839;-66
2022/12/02 03:49:26;;;;;;;;;;;;;;;7.51;58.58;102441.13;4968469;28;123965;-65
2022/12/02 03:51:53;;;;;;;;;;;;;;;7.51;58.69;102435.88;4949547;28;123813;-65
2022/12/02 03:54:20;;;;;;;;;;;;;;;7.49;58.56;102427.09;4964052;28;119513;-65
2022/12/02 03:56:47;;;;;;;;;;;;;;;7.50;58.87;102422.72;4964235;28;118682;-65
2022/12/02 03:59:21;;;;;;;;;;;;;;;7.49;58.91;102421.81;4962624;28;125650;-66
2022/12/02 04:01:48;;;;;;;;;;;;;;;7.49;58.89;102427.09;4947269;28;124035;-65
2022/12/02 04:04:15;;;;;;;;;;;;;;;7.48;58.90;102425.34;4954514;28;119827;-66
2022/12/02 04:06:42;;;;;;;;;;;;;;;7.47;58.68;102415.69;4945070;28;118490;-65
2022/12/02 04:09:09;;;;;;;;;;;;;;;7.45;58.10;102425.38;4953534;28;124032;-66
2022/12/02 04:11:36;;;;;;;;;;;;;;;7.43;58.16;102427.13;4963784;28;124484;-65
2022/12/02 04:14:02;;;;;;;;;;;;;;;7.42;58.78;102430.66;4953920;28;119752;-65
2022/12/02 04:16:29;;;;;;;;;;;;;;;7.41;58.67;102428.91;4950543;28;118940;-65
2022/12/02 04:18:56;;;;;;;;;;;;;;;7.41;58.83;102439.47;4935307;28;123748;-65
2022/12/02 04:21:23;;;;;;;;;;;;;;;7.42;58.90;102430.66;4949920;28;124779;-66
2022/12/02 04:23:53;;;;;;;;;;;;;;;7.44;58.62;102423.63;4968432;28;120457;-66
2022/12/02 04:26:20;;;;;;;;;;;;;;;7.46;58.77;102421.88;4948169;28;118668;-66
2022/12/02 04:28:48;;;;;;;;;;;;;;;7.45;58.49;102425.38;4947398;28;123101;-65
2022/12/02 04:31:15;;;;;;;;;;;;;;;7.44;58.45;102423.63;4957250;28;125976;-66
2022/12/02 04:33:42;;;;;;;;;;;;;;;7.44;58.52;102417.47;4954072;28;120438;-66
2022/12/02 04:36:09;;;;;;;;;;;;;;;7.43;58.69;102416.59;4968443;28;119003;-66
2022/12/02 04:38:35;;;;;;;;;;;;;;;7.43;58.28;102427.13;4965696;28;124376;-66
2022/12/02 04:41:02;;;;;;;;;;;;;;;7.42;58.66;102420.09;4961294;28;124251;-65
2022/12/02 04:43:29;;;;;;;;;;;;;;;7.41;58.52;102413.97;4970458;28;119485;-66
2022/12/02 04:45:56;;;;;;;;;;;;;;;7.42;58.61;102409.56;4952503;28;118645;-66
2022/12/02 04:48:23;;;;;;;;;;;;;;;7.41;58.48;102405.19;4951130;28;123316;-66
2022/12/02 04:50:50;;;;;;;;;;;;;;;7.40;58.60;102400.78;4966166;28;124992;-66
2022/12/02 04:53:17;;;;;;;;;;;;;;;7.39;58.68;102393.78;4963043;28;119596;-65
2022/12/02 04:55:45;;;;;;;;;;;;;;;7.41;58.57;102397.28;4949936;28;118327;-66
2022/12/02 04:58:12;;;;;;;;;;;;;;;7.42;58.89;102399.00;4959973;28;124823;-65
2022/12/02 05:00:39;;;;;;;;;;;;;;;7.45;58.62;102396.38;4964246;28;124095;-66
2022/12/02 05:03:06;;;;;;;;;;;;;;;7.45;58.47;102388.47;4977698;28;119421;-65
2022/12/02 05:05:33;;;;;;;;;;;;;;;7.44;58.38;102385.81;4970294;28;118974;-66
2022/12/02 05:08:00;;;;;;;;;;;;;;;7.39;58.29;102389.38;4960971;28;124360;-66
2022/12/02 05:10:27;;;;;;;;;;;;;;;7.37;58.50;102395.56;4979670;28;124069;-65
2022/12/02 05:12:54;;;;;;;;;;;;;;;7.35;58.30;102392.06;4952219;28;120049;-66
2022/12/02 05:15:21;;;;;;;;;;;;;;;7.32;58.12;102392.06;4939758;28;117619;-65
2022/12/02 05:17:48;;;;;;;;;;;;;;;7.29;57.97;102394.72;4964668;28;124085;-66
2022/12/02 05:20:15;;;;;;;;;;;;;;;7.26;58.35;102382.44;4961081;28;123975;-65
2022/12/02 05:22:42;;;;;;;;;;;;;;;7.25;58.41;102379.81;4965428;28;120373;-66
2022/12/02 05:25:10;;;;;;;;;;;;;;;7.24;58.11;102380.72;4951280;28;119107;-65
2022/12/02 05:27:36;;;;;;;;;;;;;;;7.25;58.31;102379.81;4969582;28;124989;-65
2022/12/02 05:30:04;;;;;;;;;;;;;;;7.26;58.60;102376.31;4937577;28;123304;-66
2022/12/02 05:32:31;;;;;;;;;;;;;;;7.25;58.22;102374.53;4950519;28;120231;-67
2022/12/02 05:34:58;;;;;;;;;;;;;;;7.25;58.18;102374.53;4966765;28;119196;-66
2022/12/02 05:37:24;;;;;;;;;;;;;;;7.25;58.63;102377.19;4969827;28;124870;-66
2022/12/02 05:39:51;;;;;;;;;;;;;;;7.25;58.49;102375.41;4966059;28;122872;-67
2022/12/02 05:42:18;;;;;;;;;;;;;;;7.27;58.37;102378.94;4961806;28;119684;-66
2022/12/02 05:44:45;;;;;;;;;;;;;;;7.28;58.42;102377.16;4950380;28;119235;-67
2022/12/02 05:47:13;;;;;;;;;;;;;;;7.30;58.90;102383.31;4954764;28;124464;-66
2022/12/02 05:49:41;;;;;;;;;;;;;;;7.33;58.55;102383.28;4957415;28;124307;-67
2022/12/02 05:52:21;;;;;;;;;;;;;;;7.34;58.76;102385.03;4953998;28;119392;-66
2022/12/02 05:54:50;;;;;;;;;;;;;;;7.36;58.78;102380.63;4939136;28;118901;-67
2022/12/02 05:57:20;;;;;;;;;;;;;;;7.36;58.55;102383.25;4949251;28;124081;-66
2022/12/02 06:00:10;;;;;;;;;;;;;;;7.36;58.55;102384.13;4948312;28;124354;-67
2022/12/02 06:02:51;;;;;;;;;;;;;;;7.36;58.68;102372.72;4932527;28;119633;-67
2022/12/02 06:05:23;;;;;;;;;;;;;;;7.35;58.55;102376.25;4963780;28;118859;-66
2022/12/02 06:07:55;;;;;;;;;;;;;;;7.33;58.62;102378.03;4962616;28;124615;-66
2022/12/02 06:10:22;;;;;;;;;;;;;;;7.35;58.88;102381.53;4951642;28;124272;-67
2022/12/02 06:12:51;;;;;;;;;;;;;;;7.35;58.76;102376.25;4962682;28;120965;-66
2022/12/02 06:15:18;;;;;;;;;;;;;;;7.34;58.72;102369.22;4956232;28;119848;-67
2022/12/02 06:17:45;;;;;;;;;;;;;;;7.34;59.03;102369.22;4946377;28;124757;-66
2022/12/02 06:20:20;;;;;;;;;;;;;;;7.35;58.45;102376.25;4970444;28;124020;-67
2022/12/02 06:22:47;;;;;;;;;;;;;;;7.38;58.64;102381.47;4969981;28;120077;-66
2022/12/02 06:25:40;;;;;;;;;;;;;;;7.37;58.73;102374.47;4951665;28;118283;-66
2022/12/02 06:28:22;;;;;;;;;;;;;;;7.38;58.60;102370.94;4965845;28;123476;-67
2022/12/02 06:30:49;;;;;;;;;;;;;;;7.39;58.88;102372.69;4949162;28;125606;-67
2022/12/02 06:33:22;;;;;;;;;;;;;;;7.39;58.75;102367.44;4951289;28;117903;-66
2022/12/02 06:35:49;;;;;;;;;;;;;;;7.39;58.79;102372.69;4968725;28;118501;-67
2022/12/02 06:38:21;;;;;;;;;;;;;;;7.38;58.74;102365.66;4965704;28;124546;-66
2022/12/02 06:40:48;;;;;;;;;;;;;;;7.37;58.92;102374.47;4946341;28;124030;-66
2022/12/02 06:43:28;;;;;;;;;;;;;;;7.37;58.53;102375.34;4963448;28;120280;-66
2022/12/02 06:45:55;;;;;;;;;;;;;;;7.36;58.82;102372.72;4940367;28;119234;-66
2022/12/02 06:48:22;;;;;;;;;;;;;;;7.36;58.40;102377.97;4962280;28;124924;-67
2022/12/02 06:50:49;;;;;;;;;;;;;;;7.35;58.58;102370.97;4949095;28;123781;-66
2022/12/02 06:53:24;;;;;;;;;;;;;;;7.36;58.80;102367.44;4948704;28;119381;-66
2022/12/02 06:55:53;;;;;;;;;;;;;;;7.35;58.48;102370.97;4955714;28;118525;-67
2022/12/02 06:58:39;;;;;;;;;;;;;;;7.35;58.85;102368.34;4936089;28;122541;-66
2022/12/02 07:01:06;;;;;;;;;;;;;;;7.38;58.70;102363.03;4954765;28;122447;-66
2022/12/02 07:03:35;;;;;;;;;;;;;;;7.36;58.83;102368.31;4965533;28;119471;-66
2022/12/02 07:06:18;;;;;;;;;;;;;;;7.35;58.80;102370.97;4948569;28;119470;-66
2022/12/02 07:08:45;;;;;;;;;;;;;;;7.35;58.59;102376.25;4946913;28;123993;-66
2022/12/02 07:11:17;;;;;;;;;;;;;;;7.34;58.76;102366.56;4948941;28;125427;-66
2022/12/02 07:13:44;;;;;;;;;;;;;;;7.32;58.55;102371.84;4945978;28;120057;-66
2022/12/02 07:16:33;;;;;;;;;;;;;;;7.31;58.49;102374.50;4967639;28;118751;-66
2022/12/02 07:19:01;;;;;;;;;;;;;;;7.29;58.78;102371.00;4952479;28;123877;-66
2022/12/02 07:21:27;;;;;;;;;;;;;;;7.29;58.73;102376.25;4972971;28;124106;-66
2022/12/02 07:23:55;;;;;;;;;;;;;;;7.29;58.66;102371.00;4931176;28;120855;-66
2022/12/02 07:26:22;;;;;;;;;;;;;;;7.32;58.90;102378.88;4948214;28;119552;-67
2022/12/02 07:28:51;;;;;;;;;;;;;;;7.35;58.75;102381.53;4947172;28;123851;-67
2022/12/02 07:31:20;;;;;;;;;;;;;;;7.35;58.86;102381.53;4950142;28;124620;-66
2022/12/02 07:33:47;;;;;;;;;;;;;;;7.37;59.08;102382.38;4949388;28;118588;-66
2022/12/02 07:36:16;;;;;;;;;;;;;;;7.36;58.93;102384.13;4933260;28;119055;-67
2022/12/02 07:38:43;;;;;;;;;;;;;;;7.37;58.93;102383.25;4951009;28;123036;-67
2022/12/02 07:41:30;;;;;;;;;;;;;;;7.37;59.07;102379.75;4944555;28;123453;-66
2022/12/02 07:44:02;;;;;;;;;;;;;;;7.38;58.89;102381.47;4945069;28;119543;-67
2022/12/02 07:46:29;;;;;;;;;;;;;;;7.36;58.86;102384.13;4952429;28;119466;-66
2022/12/02 07:48:56;;;;;;;;;;;;;;;7.34;58.62;102385.88;4946406;28;123907;-67
2022/12/02 07:51:24;;;;;;;;;;;;;;;7.34;58.56;102385.03;4953986;28;124030;-66
2022/12/02 07:53:51;;;;;;;;;;;;;;;7.29;58.65;102392.06;4953597;28;120224;-67
2022/12/02 07:56:17;;;;;;;;;;;;;;;7.30;58.90;102389.44;4938747;28;118501;-66
2022/12/02 07:58:44;;;;;;;;;;;;;;;7.29;58.79;102392.06;4958184;28;124132;-66
2022/12/02 08:01:31;;;;;;;;;;;;;;;7.28;58.82;102387.72;4954295;28;124196;-66
2022/12/02 08:03:58;;;;;;;;;;;;;;;7.25;58.98;102379.81;4960019;28;120053;-67
2022/12/02 08:06:25;;;;;;;;;;;;;;;7.24;58.61;102388.63;4938467;28;118670;-67
2022/12/02 08:08:52;;;;;;;;;;;;;;;7.20;58.97;102378.09;4927847;28;123118;-66
2022/12/02 08:11:19;;;;;;;;;;;;;;;7.19;58.85;102391.25;4929967;28;124802;-66
2022/12/02 08:13:46;;;;;;;;;;;;;;;7.17;59.02;102387.78;4954163;28;119544;-67
2022/12/02 08:16:13;;;;;;;;;;;;;;;7.15;58.84;102385.13;4947310;28;119828;-67
2022/12/02 08:18:39;;;;;;;;;;;;;;;7.13;58.65;102392.19;4947170;28;124467;-67
2022/12/02 08:21:06;;;;;;;;;;;;;;;7.12;58.77;102384.28;4956788;28;123884;-67
2022/12/02 08:23:35;;;;;;;;;;;;;;;7.08;59.12;102383.41;4964449;28;119254;-67
2022/12/02 08:26:02;;;;;;;;;;;;;;;7.06;59.04;102385.19;4951231;28;118486;-67
2022/12/02 08:28:29;;;;;;;;;;;;;;;7.04;59.17;102381.69;4955107;28;124711;-67
2022/12/02 08:30:56;;;;;;;;;;;;;;;7.03;59.01;102390.50;4968990;28;124194;-67
2022/12/02 08:33:23;;;;;;;;;;;;;;;7.04;58.94;102380.81;4949412;28;119290;-67
2022/12/02 08:35:50;;;;;;;;;;;;;;;7.02;59.24;102383.47;4944030;28;119029;-68
2022/12/02 08:38:17;;;;;;;;;;;;;;;6.99;58.93;102383.50;4967069;28;125282;-67
2022/12/02 08:40:44;;;;;;;;;;;;;;;6.97;58.88;102390.53;4957209;28;125541;-68
2022/12/02 08:43:11;;;;;;;;;;;;;;;6.95;59.22;102376.47;4961985;28;120728;-67
2022/12/02 08:45:37;;;;;;;;;;;;;;;6.95;59.26;102384.38;4972210;28;119516;-67
2022/12/02 08:48:04;;;;;;;;;;;;;;;6.94;59.07;102385.28;4964437;28;124143;-67
2022/12/02 08:50:31;;;;;;;;;;;;;;;6.94;59.46;102385.28;4954352;28;124418;-68
2022/12/02 08:52:58;;;;;;;;;;;;;;;6.93;59.11;102378.22;4966088;28;119399;-67
2022/12/02 08:55:26;;;;;;;;;;;;;;;6.94;59.07;102385.28;4963798;28;118658;-67
2022/12/02 08:57:53;;;;;;;;;;;;;;;6.94;59.21;102375.59;4949404;28;125285;-67
2022/12/02 09:00:20;;;;;;;;;;;;;;;6.95;59.52;102387.00;4933867;28;122990;-67
2022/12/02 09:02:47;;;;;;;;;;;;;;;6.94;59.18;102380.88;4955545;28;119356;-67
2022/12/02 09:05:14;;;;;;;;;;;;;;;6.96;59.57;102386.13;4959604;28;119476;-67
2022/12/02 09:07:41;;;;;;;;;;;;;;;6.96;59.17;102388.75;4956705;28;124108;-67
2022/12/02 09:10:09;;;;;;;;;;;;;;;6.96;59.23;102383.50;4963054;28;124149;-67
2022/12/02 09:12:36;;;;;;;;;;;;;;;6.95;59.63;102389.63;4951146;28;119553;-67
2022/12/02 09:15:03;;;;;;;;;;;;;;;6.95;59.67;102384.38;4955324;28;118649;-68
2022/12/02 09:17:30;;;;;;;;;;;;;;;6.95;59.47;102381.72;4950711;28;124634;-67
2022/12/02 09:19:57;;;;;;;;;;;;;;;6.95;59.63;102376.47;4940625;28;123973;-67
2022/12/02 09:22:24;;;;;;;;;;;;;;;6.97;59.48;102385.25;4932612;28;118348;-67
2022/12/02 09:24:51;;;;;;;;;;;;;;;6.97;59.36;102375.59;4953989;28;118671;-67
2022/12/02 09:27:19;;;;;;;;;;;;;;;6.99;59.40;102373.81;4962697;28;125465;-67
2022/12/02 09:29:46;;;;;;;;;;;;;;;7.03;59.59;102379.97;4967594;28;124291;-67
2022/12/02 09:32:12;;;;;;;;;;;;;;;7.02;59.45;102373.78;4957796;28;121356;-67
2022/12/02 09:34:39;;;;;;;;;;;;;;;7.03;59.54;102377.31;4964618;28;119636;-67
2022/12/02 09:37:06;;;;;;;;;;;;;;;7.02;59.32;102378.19;4962875;28;123824;-67
2022/12/02 09:39:33;;;;;;;;;;;;;;;7.01;59.37;102371.19;4963320;28;123985;-67
2022/12/02 09:42:06;;;;;;;;;;;;;;;7.04;59.55;102370.28;4974527;28;119685;-67
2022/12/02 09:44:33;;;;;;;;;;;;;;;7.04;59.53;102371.16;4978180;28;119209;-67
2022/12/02 09:47:00;;;;;;;;;;;;;;;7.06;59.67;102372.00;4948077;28;124090;-67
2022/12/02 09:49:27;;;;;;;;;;;;;;;7.07;59.66;102371.16;4951053;28;123711;-67
2022/12/02 09:51:57;;;;;;;;;;;;;;;7.08;59.68;102372.00;4965751;28;120135;-68
2022/12/02 09:54:23;;;;;;;;;;;;;;;7.07;59.62;102371.16;4949990;28;120004;-69
2022/12/02 09:56:50;;;;;;;;;;;;;;;7.08;59.66;102372.88;4932879;28;124936;-69
2022/12/02 09:59:17;;;;;;;;;;;;;;;7.08;59.42;102364.97;4934624;28;124728;-69
2022/12/02 10:01:46;;;;;;;;;;;;;;;7.09;59.77;102369.38;4948270;28;119394;-69
2022/12/02 10:04:15;;;;;;;;;;;;;;;7.11;59.75;102357.06;4945542;28;117453;-68
2022/12/02 10:06:43;;;;;;;;;;;;;;;7.11;59.47;102357.06;4931370;28;124393;-68
2022/12/02 10:09:14;;;;;;;;;;;;;;;7.13;59.87;102355.28;4953560;28;124065;-68
2022/12/02 10:11:41;;;;;;;;;;;;;;;7.17;59.85;102356.16;4942750;28;119286;-67
2022/12/02 10:14:10;;;;;;;;;;;;;;;7.19;59.79;102355.25;4967205;28;119161;-68
2022/12/02 10:16:37;;;;;;;;;;;;;;;7.21;59.55;102352.59;4957058;28;124638;-67
2022/12/02 10:19:05;;;;;;;;;;;;;;;7.23;59.67;102361.38;4955923;28;123860;-68
2022/12/02 10:21:33;;;;;;;;;;;;;;;7.26;59.93;102360.50;4945185;28;119879;-67
2022/12/02 10:24:03;;;;;;;;;;;;;;;7.29;59.88;102347.28;4939886;28;119204;-67
2022/12/02 10:26:41;;;;;;;;;;;;;;;7.33;59.73;102356.94;4956824;28;124289;-68
2022/12/02 10:29:13;;;;;;;;;;;;;;;7.34;59.63;102349.00;4958477;28;123782;-67
2022/12/02 10:31:51;;;;;;;;;;;;;;;7.36;60.03;102351.63;4937760;28;118962;-67
2022/12/02 10:34:19;;;;;;;;;;;;;;;7.38;59.94;102355.13;4955815;28;118865;-67
2022/12/02 10:36:46;;;;;;;;;;;;;;;7.38;59.91;102356.03;4947034;28;125126;-67
2022/12/02 10:39:15;;;;;;;;;;;;;;;7.38;59.87;102345.47;4953490;28;125036;-68
2022/12/02 10:41:43;;;;;;;;;;;;;;;7.39;59.56;102346.34;4955838;28;119950;-68
2022/12/02 10:44:20;;;;;;;;;;;;;;;7.38;59.67;102344.56;4937103;28;118528;-67
2022/12/02 10:46:47;;;;;;;;;;;;;;;7.38;59.92;102339.31;4963177;28;123826;-68
2022/12/02 10:49:16;;;;;;;;;;;;;;;7.40;59.94;102337.53;4956217;28;123824;-67
2022/12/02 10:51:42;;;;;;;;;;;;;;;7.41;59.98;102339.28;4961316;28;120171;-68
2022/12/02 10:54:19;;;;;;;;;;;;;;;7.43;59.72;102339.28;4943184;28;117896;-68
2022/12/02 10:56:46;;;;;;;;;;;;;;;7.44;59.92;102339.28;4947409;28;124258;-68
2022/12/02 10:59:14;;;;;;;;;;;;;;;7.44;59.75;102328.75;4927820;28;123174;-68
2022/12/02 11:01:42;;;;;;;;;;;;;;;7.43;59.72;102319.06;4961135;28;120101;-68
2022/12/02 11:04:13;;;;;;;;;;;;;;;7.42;59.58;102319.94;4935661;28;118838;-68
2022/12/02 11:06:44;;;;;;;;;;;;;;;7.41;59.40;102334.03;4955060;28;124438;-67
2022/12/02 11:09:19;;;;;;;;;;;;;;;7.40;59.78;102332.25;4950593;28;125215;-67
2022/12/02 11:12:25;;;;;;;;;;;;;;;7.40;59.59;102327.00;4938516;28;119952;-67
2022/12/02 11:14:52;;;;;;;;;;;;;;;7.39;59.64;102335.81;4955546;28;119606;-67
2022/12/02 11:17:39;;;;;;;;;;;;;;;7.38;59.70;102334.03;4947137;28;123639;-68
2022/12/02 11:20:28;;;;;;;;;;;;;;;7.36;59.74;102333.19;4977373;28;124017;-68
2022/12/02 11:22:58;;;;;;;;;;;;;;;7.37;59.83;102329.66;4948673;28;119967;-68
2022/12/02 11:25:43;;;;;;;;;;;;;;;7.38;59.78;102320.84;4956766;28;118712;-67
2022/12/02 11:28:16;;;;;;;;;;;;;;;7.38;59.44;102323.50;4951623;28;125051;-67
2022/12/02 11:30:44;;;;;;;;;;;;;;;7.38;59.48;102324.38;4945626;28;124499;-67
2022/12/02 11:33:12;;;;;;;;;;;;;;;7.39;59.67;102319.97;4965576;28;120315;-67
2022/12/02 11:35:58;;;;;;;;;;;;;;;7.38;59.73;102328.75;4969442;28;119428;-67
2022/12/02 11:38:26;;;;;;;;;;;;;;;7.36;59.71;102327.91;4965625;28;123141;-67
2022/12/02 11:40:53;;;;;;;;;;;;;;;7.36;59.66;102330.53;4959751;28;123967;-67
2022/12/02 11:43:40;;;;;;;;;;;;;;;7.37;59.34;102327.91;4964705;28;121068;-67
2022/12/02 11:46:07;;;;;;;;;;;;;;;7.37;59.55;102321.75;4956799;28;118362;-67
2022/12/02 11:48:43;;;;;;;;;;;;;;;7.39;59.59;102319.97;4950727;28;123236;-66
2022/12/02 11:51:25;;;;;;;;;;;;;;;7.40;59.80;102319.09;4948005;28;124936;-67
2022/12/02 11:53:52;;;;;;;;;;;;;;;7.41;59.66;102307.66;4946610;28;119348;-67
2022/12/02 11:56:19;;;;;;;;;;;;;;;7.40;59.58;102308.53;4941722;28;118117;-67
2022/12/02 11:58:46;;;;;;;;;;;;;;;7.40;59.61;102308.53;4930274;28;123708;-67
2022/12/02 12:01:13;;;;;;;;;;;;;;;7.42;59.69;102309.41;4948103;28;123972;-70
2022/12/02 12:03:50;;;;;;;;;;;;;;;7.43;59.78;102300.63;4949058;28;121646;-69
2022/12/02 12:06:18;;;;;;;;;;;;;;;7.44;59.74;102302.38;4930851;28;118741;-69
2022/12/02 12:08:47;;;;;;;;;;;;;;;7.49;59.77;102305.81;4936729;28;122985;-67
2022/12/02 12:11:14;;;;;;;;;;;;;;;7.53;59.50;102297.00;4953385;28;124547;-67
2022/12/02 12:13:59;;;;;;;;;;;;;;;7.57;59.86;102292.56;4967671;28;119764;-68
2022/12/02 12:16:26;;;;;;;;;;;;;;;7.60;59.44;102293.41;4958236;28;119298;-69
2022/12/02 12:18:53;;;;;;;;;;;;;;;7.62;59.31;102296.06;4961890;28;124476;-69
2022/12/02 12:21:32;;;;;;;;;;;;;;;7.64;59.53;102293.41;4963086;28;124277;-69
2022/12/02 12:24:17;;;;;;;;;;;;;;;7.65;59.74;102289.84;4950026;28;120600;-68
2022/12/02 12:26:45;;;;;;;;;;;;;;;7.66;59.71;102291.63;4954395;28;118601;-68
2022/12/02 12:29:12;;;;;;;;;;;;;;;7.66;59.28;102286.34;4947251;28;124025;-69
2022/12/02 12:31:39;;;;;;;;;;;;;;;7.67;59.59;102282.84;4948409;28;124865;-68
2022/12/02 12:34:07;;;;;;;;;;;;;;;7.68;59.51;102287.22;4937037;28;121171;-68
2022/12/02 12:36:34;;;;;;;;;;;;;;;7.66;59.01;102281.06;4962823;28;119081;-67
2022/12/02 12:39:02;;;;;;;;;;;;;;;7.63;58.65;102291.63;4946676;28;125631;-68
2022/12/02 12:41:29;;;;;;;;;;;;;;;7.59;59.11;102281.16;4935081;28;125095;-68
2022/12/02 12:44:16;;;;;;;;;;;;;;;7.56;58.89;102278.53;4939098;28;117150;-68
2022/12/02 12:46:43;;;;;;;;;;;;;;;7.54;58.78;102279.44;4957102;28;120148;-68
2022/12/02 12:49:10;;;;;;;;;;;;;;;7.52;58.89;102281.22;4954637;28;124726;-70